Time;durP1;ratioP1;P1;durP2;ratioP2;P2;SDS_P1;SDS_P2;PMS_P1;PMS_P2;Temp;Humidity;BMP_temperature;BMP_pressure;BME280_temperature;BME280_humidity;BME280_pressure;Samples;Min_cycle;Max_cycle;Signal;HPM_P1;HPM_P2
2022/02/16 00:01:22;;;;;;;1.50;0.80;;;;;;;4.15;76.03;98512.34;5006703;28;20494;-72
2022/02/16 00:03:47;;;;;;;3.17;1.25;;;;;;;4.13;76.02;98515.19;5006494;28;20380;-73
2022/02/16 00:06:13;;;;;;;4.57;1.15;;;;;;;4.13;76.04;98498.28;5005969;28;20442;-72
2022/02/16 00:08:38;;;;;;;4.75;0.98;;;;;;;4.20;75.88;98503.81;5005124;28;20041;-72
2022/02/16 00:11:03;;;;;;;3.95;1.17;;;;;;;3.98;75.53;98463.34;5006396;28;20412;-74
2022/02/16 00:13:29;;;;;;;2.35;0.90;;;;;;;4.10;75.05;98490.59;5007755;28;20069;-73
2022/02/16 00:15:54;;;;;;;4.65;1.30;;;;;;;4.06;75.01;98467.84;5015660;28;20040;-72
2022/02/16 00:18:19;;;;;;;6.72;1.20;;;;;;;4.27;74.55;98500.28;5022096;28;20009;-72
2022/02/16 00:20:45;;;;;;;3.78;1.15;;;;;;;4.14;75.04;98490.09;5017459;28;20112;-73
2022/02/16 00:23:10;;;;;;;2.50;0.70;;;;;;;4.27;74.46;98500.28;5006759;28;20240;-72
2022/02/16 00:25:36;;;;;;;2.83;0.60;;;;;;;4.24;74.19;98500.59;5009768;28;20083;-72
2022/02/16 00:28:01;;;;;;;4.35;0.98;;;;;;;4.16;73.78;98474.69;5007717;28;20033;-72
2022/02/16 00:30:26;;;;;;;2.28;0.80;;;;;;;3.96;74.28;98443.97;5008102;28;20061;-73
2022/02/16 00:32:52;;;;;;;3.42;0.88;;;;;;;3.94;74.22;98454.81;5007161;28;20068;-74
2022/02/16 00:35:17;;;;;;;4.15;1.00;;;;;;;4.12;74.56;98488.59;5010879;28;20025;-73
2022/02/16 00:37:43;;;;;;;1.65;0.65;;;;;;;4.03;74.77;98479.72;5006587;28;20065;-73
2022/02/16 00:40:09;;;;;;;1.85;0.95;;;;;;;4.12;74.37;98483.25;5008879;28;20056;-73
2022/02/16 00:42:35;;;;;;;5.97;0.85;;;;;;;4.07;74.74;98467.69;5007582;28;20087;-74
2022/02/16 00:45:00;;;;;;;1.85;0.80;;;;;;;4.22;74.52;98488.38;5005035;28;20030;-72
2022/02/16 00:47:25;;;;;;;1.05;0.75;;;;;;;4.18;74.97;98470.00;5006409;28;20072;-72
2022/02/16 00:49:51;;;;;;;2.22;0.73;;;;;;;4.15;74.66;98459.63;5007251;28;20137;-72
2022/02/16 00:52:17;;;;;;;2.28;0.70;;;;;;;3.94;75.53;98430.72;5006563;28;20446;-73
2022/02/16 00:54:43;;;;;;;2.67;0.77;;;;;;;4.04;75.59;98448.47;5005026;28;20066;-73
2022/02/16 00:57:08;;;;;;;1.42;0.68;;;;;;;4.11;75.38;98450.28;5006933;28;20037;-73
2022/02/16 00:59:34;;;;;;;2.05;0.80;;;;;;;4.13;75.29;98461.63;5004544;28;20070;-72
2022/02/16 01:01:59;;;;;;;1.15;0.68;;;;;;;4.31;75.27;98460.59;5006109;28;20034;-73
2022/02/16 01:04:24;;;;;;;3.33;0.82;;;;;;;4.27;75.38;98457.44;5007633;28;20037;-73
2022/02/16 01:06:52;;;;;;;2.95;0.90;;;;;;;4.38;74.91;98464.28;5005914;28;20025;-73
2022/02/16 01:09:18;;;;;;;1.52;0.70;;;;;;;4.27;75.18;98448.53;5008157;28;20038;-73
2022/02/16 01:11:43;;;;;;;2.53;0.68;;;;;;;4.22;74.83;98425.00;5008484;28;20558;-72
2022/02/16 01:14:08;;;;;;;2.75;0.98;;;;;;;4.34;74.32;98436.16;5012727;28;20076;-72
2022/02/16 01:16:35;;;;;;;4.50;0.95;;;;;;;4.26;74.82;98420.94;5010821;28;20079;-73
2022/02/16 01:19:02;;;;;;;3.50;0.80;;;;;;;4.31;75.68;98423.09;5014577;28;20545;-72
2022/02/16 01:21:27;;;;;;;1.25;0.60;;;;;;;4.43;75.88;98445.84;5009965;28;20076;-71
2022/02/16 01:23:53;;;;;;;5.60;1.02;;;;;;;4.43;75.85;98444.97;5010252;28;20160;-72
2022/02/16 01:26:19;;;;;;;1.30;0.60;;;;;;;4.41;76.27;98428.28;5010105;28;20506;-71
2022/02/16 01:28:45;;;;;;;3.03;0.90;;;;;;;4.35;75.99;98408.38;5009895;28;20037;-72
2022/02/16 01:31:10;;;;;;;2.03;0.63;;;;;;;4.52;76.42;98441.28;5011362;28;20033;-73
2022/02/16 01:33:35;;;;;;;1.60;0.63;;;;;;;4.45;76.31;98414.34;5006868;28;20125;-73
2022/02/16 01:36:00;;;;;;;3.47;1.00;;;;;;;4.38;76.18;98402.66;5008384;28;20021;-73
2022/02/16 01:38:26;;;;;;;2.88;0.80;;;;;;;4.56;76.28;98422.00;5008475;28;20033;-73
2022/02/16 01:40:51;;;;;;;3.63;1.20;;;;;;;4.55;75.96;98419.50;5013641;28;20033;-73
2022/02/16 01:43:17;;;;;;;2.67;0.85;;;;;;;4.72;75.97;98428.31;5011580;28;20030;-73
2022/02/16 01:45:42;;;;;;;2.72;0.73;;;;;;;4.46;75.61;98381.19;5006857;28;20403;-72
2022/02/16 01:48:07;;;;;;;5.80;0.65;;;;;;;4.57;76.71;98402.25;5009335;28;20030;-72
2022/02/16 01:50:33;;;;;;;4.78;0.80;;;;;;;4.69;76.21;98409.88;5010027;28;20062;-74
2022/02/16 01:52:58;;;;;;;1.23;0.60;;;;;;;4.58;76.47;98382.50;5007501;28;20893;-73
2022/02/16 01:55:24;;;;;;;2.78;0.60;;;;;;;4.73;76.01;98401.31;5011764;28;20025;-72
2022/02/16 01:57:49;;;;;;;3.45;0.90;;;;;;;4.54;76.59;98374.97;5012652;28;20041;-72
2022/02/16 02:00:15;;;;;;;3.63;0.80;;;;;;;4.54;77.29;98374.97;5008915;28;20422;-72
2022/02/16 02:02:42;;;;;;;3.60;0.88;;;;;;;4.46;78.33;98362.44;5012713;28;20151;-74
2022/02/16 02:05:07;;;;;;;5.18;0.73;;;;;;;4.38;79.48;98367.84;5009597;28;20037;-73
2022/02/16 02:07:36;;;;;;;2.13;0.60;;;;;;;4.29;80.48;98364.34;5014379;28;20041;-73
2022/02/16 02:10:03;;;;;;;2.20;0.70;;;;;;;4.25;80.40;98348.84;5008869;28;20033;-73
2022/02/16 02:12:28;;;;;;;3.65;1.08;;;;;;;4.30;82.46;98370.56;5012473;28;20025;-73
2022/02/16 02:14:53;;;;;;;3.47;0.50;;;;;;;4.20;83.36;98359.22;5010486;28;20041;-73
2022/02/16 02:17:19;;;;;;;1.73;0.75;;;;;;;4.32;83.56;98379.25;5014166;28;20034;-73
2022/02/16 02:19:44;;;;;;;1.27;0.60;;;;;;;4.17;84.43;98350.53;5013387;28;20112;-73
2022/02/16 02:22:10;;;;;;;4.13;0.80;;;;;;;4.36;84.11;98376.06;5012157;28;20045;-73
2022/02/16 02:24:35;;;;;;;2.75;0.73;;;;;;;4.21;86.07;98336.78;5010024;28;20037;-73
2022/02/16 02:27:00;;;;;;;3.95;0.47;;;;;;;4.08;85.98;98329.31;5007513;28;20623;-72
2022/02/16 02:29:25;;;;;;;5.90;0.70;;;;;;;4.05;86.84;98319.78;5004813;28;20037;-73
2022/02/16 02:31:51;;;;;;;4.10;0.47;;;;;;;4.11;87.29;98335.19;5008767;28;20022;-73
2022/02/16 02:34:16;;;;;;;4.45;0.60;;;;;;;4.25;87.80;98338.94;5009231;28;20446;-73
2022/02/16 02:36:42;;;;;;;1.60;0.63;;;;;;;4.31;87.42;98346.28;5006662;28;20068;-71
2022/02/16 02:39:07;;;;;;;3.53;0.55;;;;;;;4.15;88.00;98314.22;5024709;28;20064;-73
2022/02/16 02:41:32;;;;;;;3.33;0.70;;;;;;;4.14;87.74;98310.72;5013124;28;20057;-72
2022/02/16 02:43:58;;;;;;;1.80;0.40;;;;;;;4.27;88.89;98328.06;5007681;28;20021;-72
2022/02/16 02:46:24;;;;;;;4.63;0.82;;;;;;;4.10;90.14;98306.72;5027664;28;20116;-71
2022/02/16 02:48:49;;;;;;;2.22;0.32;;;;;;;3.97;89.25;98271.66;5011925;28;20108;-73
2022/02/16 02:51:17;;;;;;;0.63;0.40;;;;;;;4.23;89.84;98298.13;5024041;28;20083;-74
2022/02/16 02:53:42;;;;;;;1.77;0.47;;;;;;;4.24;90.70;98306.97;5014557;28;20029;-75
2022/02/16 02:56:08;;;;;;;2.55;0.50;;;;;;;4.11;89.40;98291.47;5008156;28;20028;-75
2022/02/16 02:58:34;;;;;;;2.22;0.85;;;;;;;4.25;91.37;98296.13;5008983;28;20030;-73
2022/02/16 03:01:00;;;;;;;3.28;0.47;;;;;;;4.10;91.79;98263.06;5010225;28;20927;-72
2022/02/16 03:03:26;;;;;;;2.42;0.52;;;;;;;4.12;92.33;98267.22;5008452;28;20029;-73
2022/02/16 03:05:51;;;;;;;5.03;0.82;;;;;;;3.94;92.12;98240.72;5010959;28;20426;-73
2022/02/16 03:08:17;;;;;;;2.72;0.60;;;;;;;4.10;91.46;98279.94;5008877;28;20625;-73
2022/02/16 03:10:42;;;;;;;3.45;0.75;;;;;;;4.17;89.96;98272.88;5007770;28;20044;-72
2022/02/16 03:13:18;;;;;;;1.75;0.38;;;;;;;3.91;90.30;98234.88;5023056;28;20022;-72
2022/02/16 03:15:48;;;;;;;2.22;0.60;;;;;;;4.02;91.73;98242.50;5014384;28;20025;-74
2022/02/16 03:18:13;;;;;;;4.40;0.60;;;;;;;4.05;89.38;98252.03;5014848;28;20037;-76
2022/02/16 03:20:39;;;;;;;2.03;0.55;;;;;;;4.13;90.06;98262.69;5024771;28;20037;-74
2022/02/16 03:23:05;;;;;;;5.45;0.88;;;;;;;3.95;90.82;98237.00;5016191;28;20485;-73
2022/02/16 03:25:30;;;;;;;3.05;0.52;;;;;;;4.00;88.79;98241.84;5015716;28;20496;-75
2022/02/16 03:27:56;;;;;;;1.38;0.57;;;;;;;4.20;87.84;98269.03;5014959;28;20391;-72
2022/02/16 03:30:21;;;;;;;0.95;0.52;;;;;;;4.20;89.30;98262.84;5013901;28;20021;-75
2022/02/16 03:32:46;;;;;;;1.83;0.47;;;;;;;4.03;89.67;98244.16;5014896;28;20083;-73
2022/02/16 03:35:12;;;;;;;3.92;0.50;;;;;;;4.06;89.29;98246.53;5015464;28;20379;-73
2022/02/16 03:37:37;;;;;;;3.95;0.75;;;;;;;4.05;89.17;98231.44;5013711;28;20029;-73
2022/02/16 03:40:03;;;;;;;2.05;0.43;;;;;;;4.20;89.24;98241.44;5015805;28;20032;-73
2022/02/16 03:42:29;;;;;;;1.30;0.47;;;;;;;4.25;88.40;98231.84;5014461;28;20032;-74
2022/02/16 03:44:54;;;;;;;1.17;0.50;;;;;;;4.02;87.20;98197.00;5021362;28;20021;-72
2022/02/16 03:47:19;;;;;;;1.52;0.70;;;;;;;4.14;86.78;98205.50;5016375;28;20060;-73
2022/02/16 03:49:45;;;;;;;1.02;0.38;;;;;;;4.42;85.76;98234.41;5032768;28;20038;-72
2022/02/16 03:52:10;;;;;;;1.00;0.40;;;;;;;4.37;85.84;98225.06;5017072;28;20092;-73
2022/02/16 03:54:35;;;;;;;1.85;0.60;;;;;;;4.22;86.60;98194.72;5014947;28;20615;-75
2022/02/16 03:57:00;;;;;;;0.85;0.40;;;;;;;4.37;86.15;98210.84;5020274;28;20095;-73
2022/02/16 03:59:26;;;;;;;0.82;0.50;;;;;;;4.21;87.47;98189.53;5013244;28;20025;-77
2022/02/16 04:01:51;;;;;;;2.55;0.45;;;;;;;4.34;87.85;98204.00;5015094;28;20091;-78
2022/02/16 04:04:16;;;;;;;2.45;0.70;;;;;;;4.34;87.62;98205.84;5021166;28;20689;-76
2022/02/16 04:06:42;;;;;;;1.45;0.52;;;;;;;4.45;87.74;98215.31;5018787;28;20555;-77
2022/02/16 04:09:07;;;;;;;0.30;0.30;;;;;;;4.26;88.55;98160.38;5026842;28;20036;-77
2022/02/16 04:11:32;;;;;;;0.63;0.43;;;;;;;4.47;87.58;98183.81;5030833;28;20029;-77
2022/02/16 04:13:57;;;;;;;3.50;0.50;;;;;;;4.56;87.67;98180.06;5033546;28;20120;-78
2022/02/16 04:16:24;;;;;;;0.70;0.20;;;;;;;4.78;86.34;98205.16;5033371;28;20029;-74
2022/02/16 04:18:50;;;;;;;2.95;0.57;;;;;;;4.56;86.77;98164.00;5027250;28;20036;-79
2022/02/16 04:21:15;;;;;;;1.17;0.40;;;;;;;4.81;86.52;98186.84;5031465;28;20029;-76
2022/02/16 04:23:42;;;;;;;0.88;0.30;;;;;;;4.82;86.40;98198.41;5017919;28;20018;-77
2022/02/16 04:26:07;;;;;;;2.92;0.70;;;;;;;4.69;86.08;98180.28;5013589;28;20021;-75
2022/02/16 04:28:33;;;;;;;1.33;0.47;;;;;;;4.71;86.42;98185.44;5011602;28;20125;-73
2022/02/16 04:30:58;;;;;;;0.70;0.30;;;;;;;4.72;86.26;98187.97;5023326;28;20037;-79
2022/02/16 04:33:23;;;;;;;0.77;0.55;;;;;;;4.51;85.76;98161.03;5029988;28;20056;-78
2022/02/16 04:35:48;;;;;;;4.63;0.88;;;;;;;4.81;86.44;98191.41;5033771;28;20083;-77
2022/02/16 04:38:14;;;;;;;1.33;0.38;;;;;;;4.85;85.45;98190.03;5029071;28;20091;-77
2022/02/16 04:40:39;;;;;;;3.17;0.50;;;;;;;4.75;85.27;98158.13;5011097;28;20030;-75
2022/02/16 04:43:10;;;;;;;1.00;0.38;;;;;;;4.76;85.17;98169.66;5022467;28;20037;-84
2022/02/16 04:45:35;;;;;;;1.23;0.43;;;;;;;4.70;85.10;98151.66;5014583;28;20037;-71
2022/02/16 04:48:01;;;;;;;1.67;0.50;;;;;;;4.79;85.64;98166.63;5020004;28;20033;-71
2022/02/16 04:50:28;;;;;;;1.70;0.50;;;;;;;4.88;85.24;98189.66;5011743;28;20041;-79
2022/02/16 04:52:54;;;;;;;1.48;0.50;;;;;;;4.88;85.78;98181.63;5013415;28;20029;-76
2022/02/16 04:55:21;;;;;;;2.10;0.30;;;;;;;4.89;83.94;98158.31;5025089;28;20022;-78
2022/02/16 04:57:46;;;;;;;1.25;0.40;;;;;;;4.84;84.49;98148.16;5013339;28;20034;-76
2022/02/16 05:00:12;;;;;;;1.63;0.43;;;;;;;5.03;83.58;98173.56;5026377;28;20040;-73
2022/02/16 05:02:37;;;;;;;2.22;0.95;;;;;;;4.93;83.60;98149.75;5029305;28;20049;-72
2022/02/16 05:05:02;;;;;;;2.83;0.30;;;;;;;5.09;82.75;98164.00;5023776;28;20653;-69
2022/02/16 05:07:28;;;;;;;1.88;0.60;;;;;;;4.95;83.22;98145.03;5023408;28;20483;-75
2022/02/16 05:09:54;;;;;;;2.80;0.70;;;;;;;5.15;82.86;98155.19;5036606;28;20021;-72
2022/02/16 05:12:19;;;;;;;1.45;0.32;;;;;;;5.17;82.90;98172.78;5029500;28;20091;-74
2022/02/16 05:14:45;;;;;;;2.28;0.40;;;;;;;5.08;82.74;98147.03;5028001;28;20034;-79
2022/02/16 05:17:10;;;;;;;1.15;0.38;;;;;;;5.17;83.14;98161.22;5022780;28;20059;-72
2022/02/16 05:19:35;;;;;;;0.50;0.38;;;;;;;4.99;82.58;98127.56;5020220;28;20094;-75
2022/02/16 05:22:01;;;;;;;1.00;0.30;;;;;;;5.21;81.86;98154.44;5030484;28;20021;-75
2022/02/16 05:24:26;;;;;;;0.60;0.30;;;;;;;5.22;81.75;98153.44;5017182;28;20026;-75
2022/02/16 05:26:51;;;;;;;0.90;0.38;;;;;;;5.31;81.86;98146.97;5015010;28;20025;-74
2022/02/16 05:29:17;;;;;;;0.80;0.40;;;;;;;5.23;81.38;98134.47;5029631;28;20152;-74
2022/02/16 05:31:43;;;;;;;6.30;0.43;;;;;;;5.19;80.96;98100.19;5026259;28;20109;-69
2022/02/16 05:34:10;;;;;;;2.05;0.45;;;;;;;5.35;81.17;98129.50;5011685;28;20502;-70
2022/02/16 05:36:35;;;;;;;0.55;0.30;;;;;;;5.37;81.23;98130.16;5021205;28;20483;-70
2022/02/16 05:39:01;;;;;;;2.78;0.30;;;;;;;5.38;81.19;98113.00;5025662;28;20021;-78
2022/02/16 05:41:28;;;;;;;1.67;0.30;;;;;;;5.30;80.56;98105.06;5020129;28;20076;-74
2022/02/16 05:43:54;;;;;;;0.93;0.30;;;;;;;5.27;80.91;98094.72;5047000;28;20470;-75
2022/02/16 05:46:19;;;;;;;0.80;0.38;;;;;;;5.25;81.12;98091.41;5030812;28;20030;-75
2022/02/16 05:48:45;;;;;;;2.40;0.22;;;;;;;5.31;80.79;98090.63;5030913;28;20052;-76
2022/02/16 05:51:10;;;;;;;1.13;0.43;;;;;;;5.02;80.92;98057.47;5025267;28;20031;-79
2022/02/16 05:53:36;;;;;;;1.10;0.43;;;;;;;5.37;80.99;98087.22;5015450;28;20030;-77
2022/02/16 05:56:01;;;;;;;3.20;0.60;;;;;;;5.38;80.72;98088.88;5015434;28;20033;-78
2022/02/16 05:58:26;;;;;;;3.70;0.63;;;;;;;5.33;80.78;98079.72;5028876;28;20373;-75
2022/02/16 06:00:52;;;;;;;1.27;0.50;;;;;;;5.43;80.80;98094.50;5020760;28;20061;-77
2022/02/16 06:03:17;;;;;;;0.90;0.52;;;;;;;5.48;80.20;98097.47;5015287;28;20018;-76
2022/02/16 06:05:42;;;;;;;0.80;0.40;;;;;;;5.42;80.96;98082.13;5021701;28;20034;-73
2022/02/16 06:08:07;;;;;;;2.40;0.47;;;;;;;5.21;81.66;98048.03;5030937;28;20030;-79
2022/02/16 06:10:33;;;;;;;0.88;0.47;;;;;;;5.43;80.78;98070.38;5041347;28;20030;-77
2022/02/16 06:13:00;;;;;;;0.50;0.38;;;;;;;5.34;80.55;98052.69;5035232;28;20047;-75
2022/02/16 06:15:26;;;;;;;0.20;0.20;;;;;;;5.38;81.32;98061.22;5037319;28;20033;-79
2022/02/16 06:17:52;;;;;;;1.42;0.38;;;;;;;5.49;81.34;98083.00;5041045;28;20022;-83
2022/02/16 06:20:17;;;;;;;0.93;0.38;;;;;;;5.34;81.00;98043.84;5028992;28;20128;-82
2022/02/16 06:22:43;;;;;;;2.28;0.40;;;;;;;5.23;80.74;98013.81;5028692;28;20500;-77
2022/02/16 06:25:09;;;;;;;1.00;0.40;;;;;;;5.33;80.82;98039.50;5033771;28;20025;-80
2022/02/16 06:27:34;;;;;;;1.42;0.30;;;;;;;5.40;80.88;98043.94;5027953;28;20097;-81
2022/02/16 06:30:01;;;;;;;0.50;0.40;;;;;;;5.48;80.67;98062.59;5029395;28;20029;-77
2022/02/16 06:32:26;;;;;;;2.40;0.40;;;;;;;5.43;80.93;98045.41;5023683;28;20021;-76
2022/02/16 06:34:52;;;;;;;2.80;0.88;;;;;;;5.57;80.89;98057.94;5019426;28;20041;-73
2022/02/16 06:37:17;;;;;;;2.25;0.70;;;;;;;5.67;80.38;98068.34;5033881;28;20025;-72
2022/02/16 06:39:42;;;;;;;2.00;0.90;;;;;;;5.54;81.14;98052.94;5035158;28;20091;-78
2022/02/16 06:42:07;;;;;;;1.00;0.60;;;;;;;5.60;80.74;98057.53;5021564;28;20053;-70
2022/02/16 06:44:33;;;;;;;0.63;0.30;;;;;;;5.69;80.94;98066.31;5022979;28;20028;-70
2022/02/16 06:46:58;;;;;;;0.88;0.50;;;;;;;5.68;81.23;98064.63;5025929;28;20021;-73
2022/02/16 06:49:23;;;;;;;2.30;0.38;;;;;;;5.58;81.71;98050.69;5026012;28;20529;-71
2022/02/16 06:51:50;;;;;;;0.93;0.43;;;;;;;5.45;81.62;98036.13;5021857;28;20037;-77
2022/02/16 06:54:15;;;;;;;1.00;0.30;;;;;;;5.37;82.30;98028.22;5032914;28;20033;-74
2022/02/16 06:56:40;;;;;;;0.40;0.40;;;;;;;5.55;82.15;98040.34;5032382;28;20022;-73
2022/02/16 06:59:06;;;;;;;1.92;0.30;;;;;;;5.64;81.57;98052.66;5033636;28;20021;-74
2022/02/16 07:01:31;;;;;;;0.40;0.30;;;;;;;5.51;82.56;98028.34;5019007;28;20021;-75
2022/02/16 07:03:56;;;;;;;0.88;0.28;;;;;;;5.57;81.88;98052.56;5027020;28;20017;-77
2022/02/16 07:06:22;;;;;;;1.02;0.30;;;;;;;5.68;82.81;98053.91;5015556;28;20084;-70
2022/02/16 07:08:47;;;;;;;0.55;0.35;;;;;;;5.67;82.56;98063.00;5023119;28;20024;-71
2022/02/16 07:11:13;;;;;;;1.85;0.98;;;;;;;5.62;83.00;98035.91;5032390;28;20025;-77
2022/02/16 07:13:38;;;;;;;1.55;0.30;;;;;;;5.63;83.39;98051.81;5020623;28;20029;-69
2022/02/16 07:16:03;;;;;;;0.95;0.40;;;;;;;5.61;84.15;98061.09;5021640;28;20113;-70
2022/02/16 07:18:30;;;;;;;1.70;0.50;;;;;;;5.51;84.50;98031.88;5023262;28;20037;-77
2022/02/16 07:20:56;;;;;;;0.65;0.40;;;;;;;5.61;85.25;98050.34;5013539;28;20121;-76
2022/02/16 07:23:21;;;;;;;0.80;0.40;;;;;;;5.47;86.14;98023.34;5047058;28;20126;-76
2022/02/16 07:25:46;;;;;;;1.80;0.50;;;;;;;5.42;86.59;98016.88;5022503;28;20500;-77
2022/02/16 07:28:12;;;;;;;1.30;0.50;;;;;;;5.43;87.16;98030.13;5023114;28;20021;-73
2022/02/16 07:30:37;;;;;;;0.68;0.50;;;;;;;5.38;87.94;98021.00;5019054;28;20029;-74
2022/02/16 07:33:02;;;;;;;1.58;0.80;;;;;;;5.31;89.18;98018.22;5013027;28;20428;-70
2022/02/16 07:35:28;;;;;;;3.42;0.50;;;;;;;5.46;89.07;98034.28;5022270;28;20060;-80
2022/02/16 07:37:55;;;;;;;1.65;0.30;;;;;;;5.39;90.73;98034.19;5012779;28;20395;-79
2022/02/16 07:40:21;;;;;;;2.85;0.90;;;;;;;5.35;91.96;98046.34;5023775;28;20112;-77
2022/02/16 07:42:46;;;;;;;2.92;0.80;;;;;;;5.24;92.57;97999.38;5032670;28;20104;-75
2022/02/16 07:45:11;;;;;;;3.05;0.70;;;;;;;5.14;93.76;98001.53;5030100;28;20388;-79
2022/02/16 07:47:38;;;;;;;1.67;0.65;;;;;;;4.92;94.41;97956.94;5013936;28;20029;-77
2022/02/16 07:50:04;;;;;;;1.25;0.47;;;;;;;5.31;94.16;98014.72;5018202;28;20021;-78
2022/02/16 07:52:32;;;;;;;1.55;0.80;;;;;;;4.36;94.57;97861.06;5038642;28;20029;-83
2022/02/16 07:54:59;;;;;;;1.05;0.45;;;;;;;5.11;94.24;97993.88;5032663;28;20384;-78
2022/02/16 07:57:24;;;;;;;1.25;0.63;;;;;;;5.03;94.82;97972.50;5036718;28;20033;-78
2022/02/16 07:59:50;;;;;;;0.88;0.47;;;;;;;5.22;94.87;98014.00;5021014;28;20029;-79
2022/02/16 08:02:15;;;;;;;1.42;0.63;;;;;;;5.25;94.92;98009.09;5019109;28;20084;-81
2022/02/16 08:04:41;;;;;;;1.85;0.88;;;;;;;5.08;95.36;97985.34;5034551;28;20112;-78
2022/02/16 08:07:06;;;;;;;1.35;0.50;;;;;;;5.16;94.94;97993.28;5035882;28;20055;-79
2022/02/16 08:09:32;;;;;;;2.50;0.65;;;;;;;5.28;94.91;97994.47;5031759;28;20044;-79
2022/02/16 08:11:57;;;;;;;0.70;0.55;;;;;;;5.34;94.14;97999.06;5015147;28;20460;-79
2022/02/16 08:14:23;;;;;;;5.10;0.90;;;;;;;5.24;95.60;97982.47;5027008;28;20030;-79
2022/02/16 08:16:48;;;;;;;0.73;0.40;;;;;;;5.30;94.81;98008.53;5027070;28;20017;-80
2022/02/16 08:19:14;;;;;;;1.15;0.60;;;;;;;5.20;95.25;97982.00;5024883;28;20025;-77
2022/02/16 08:21:40;;;;;;;3.80;0.65;;;;;;;5.28;95.76;97987.25;5026037;28;20034;-80
2022/02/16 08:24:07;;;;;;;1.13;0.60;;;;;;;5.45;96.00;98009.31;5032457;28;20391;-75
2022/02/16 08:26:33;;;;;;;1.88;0.80;;;;;;;5.46;96.15;97988.69;5032506;28;20199;-69
2022/02/16 08:28:58;;;;;;;2.28;0.80;;;;;;;5.31;95.90;97967.25;5021250;28;20620;-71
2022/02/16 08:31:24;;;;;;;1.35;0.60;;;;;;;5.46;95.97;98002.91;5030781;28;20047;-72
2022/02/16 08:33:49;;;;;;;0.98;0.60;;;;;;;5.38;96.27;97967.34;5024828;28;20494;-72
2022/02/16 08:36:15;;;;;;;2.92;0.65;;;;;;;5.31;96.60;97961.91;5018660;28;20030;-73
2022/02/16 08:38:42;;;;;;;3.53;0.70;;;;;;;5.29;98.05;97980.03;5021187;28;20075;-78
2022/02/16 08:41:08;;;;;;;1.63;0.55;;;;;;;5.16;98.78;97953.94;5014533;28;20029;-77
2022/02/16 08:43:33;;;;;;;2.25;0.70;;;;;;;5.11;98.75;97932.22;5013008;28;20037;-79
2022/02/16 08:45:59;;;;;;;0.93;0.60;;;;;;;5.33;99.45;97962.53;5015932;28;20034;-80
2022/02/16 08:48:25;;;;;;;1.23;0.60;;;;;;;5.15;99.67;97935.34;5027968;28;20021;-79
2022/02/16 08:50:55;;;;;;;1.27;0.60;;;;;;;5.23;100.00;97937.88;5021685;28;20021;-74
2022/02/16 08:53:22;;;;;;;1.02;0.47;;;;;;;5.37;99.83;97945.06;5028348;28;20120;-76
2022/02/16 08:55:48;;;;;;;2.30;0.80;;;;;;;5.33;100.00;97949.13;5014396;28;20029;-79
2022/02/16 08:58:14;;;;;;;3.25;0.82;;;;;;;5.25;100.00;97939.34;5028164;28;20025;-76
2022/02/16 09:00:39;;;;;;;1.25;0.68;;;;;;;5.29;100.00;97942.47;5024788;28;20028;-72
2022/02/16 09:03:05;;;;;;;1.60;0.80;;;;;;;5.34;100.00;97937.38;5022795;28;20116;-74
2022/02/16 09:05:31;;;;;;;0.75;0.47;;;;;;;5.37;100.00;97933.47;5028713;28;20064;-74
2022/02/16 09:07:56;;;;;;;2.25;0.47;;;;;;;5.27;100.00;97921.22;5019985;28;20045;-74
2022/02/16 09:10:21;;;;;;;1.70;0.70;;;;;;;5.32;100.00;97911.75;5021142;28;20025;-75
2022/02/16 09:12:47;;;;;;;1.75;0.63;;;;;;;5.33;100.00;97903.53;5026857;28;20026;-73
2022/02/16 09:15:12;;;;;;;1.98;0.80;;;;;;;5.43;100.00;97922.00;5024195;28;20025;-72
2022/02/16 09:17:38;;;;;;;1.58;0.90;;;;;;;5.44;100.00;97912.91;5029319;28;20025;-71
2022/02/16 09:20:05;;;;;;;1.70;0.65;;;;;;;5.60;100.00;97927.91;5032626;28;20026;-75
2022/02/16 09:22:30;;;;;;;2.35;0.98;;;;;;;5.48;100.00;97912.34;5022368;28;20511;-72
2022/02/16 09:24:56;;;;;;;1.67;0.85;;;;;;;5.44;100.00;97896.81;5022615;28;20035;-75
2022/02/16 09:27:22;;;;;;;4.15;1.50;;;;;;;5.45;100.00;97893.97;5019181;28;20105;-74
2022/02/16 09:29:48;;;;;;;2.78;0.90;;;;;;;5.64;100.00;97908.56;5030217;28;20502;-76
2022/02/16 09:32:14;;;;;;;1.85;0.90;;;;;;;5.49;100.00;97873.75;5028667;28;20029;-77
2022/02/16 09:34:40;;;;;;;2.00;0.80;;;;;;;5.51;100.00;97875.44;5035887;28;20032;-77
2022/02/16 09:37:05;;;;;;;1.80;0.80;;;;;;;5.74;100.00;97902.88;5035874;28;20553;-76
2022/02/16 09:39:32;;;;;;;2.00;1.00;;;;;;;5.79;100.00;97903.13;5033971;28;20026;-76
2022/02/16 09:41:57;;;;;;;2.05;0.88;;;;;;;5.82;100.00;97899.22;5028620;28;20025;-76
2022/02/16 09:44:46;;;;;;;3.05;1.52;;;;;;;5.92;100.00;97894.31;5024475;28;20084;-76
2022/02/16 09:47:13;;;;;;;2.17;1.15;;;;;;;5.74;100.00;97876.03;5030189;28;20053;-76
2022/02/16 09:49:38;;;;;;;1.75;0.80;;;;;;;5.92;100.00;97900.53;5023624;28;20594;-74
2022/02/16 09:52:06;;;;;;;1.98;0.82;;;;;;;5.91;100.00;97893.47;5024362;28;20034;-72
2022/02/16 09:54:32;;;;;;;7.07;0.82;;;;;;;5.68;100.00;97852.63;5017734;28;20025;-73
2022/02/16 09:56:57;;;;;;;2.15;0.63;;;;;;;5.96;100.00;97890.25;5029697;28;20025;-75
2022/02/16 09:59:23;;;;;;;2.33;1.13;;;;;;;5.75;100.00;97834.75;5032843;28;20030;-74
2022/02/16 10:02:00;;;;;;;5.70;1.27;;;;;;;6.11;100.00;97888.28;5027536;28;20061;-72
2022/02/16 10:04:28;;;;;;;2.25;1.00;;;;;;;6.12;100.00;97891.78;5034978;28;20506;-74
2022/02/16 10:06:54;;;;;;;3.05;1.38;;;;;;;6.02;100.00;97872.50;5034129;28;20637;-75
2022/02/16 10:09:32;;;;;;;2.00;0.85;;;;;;;6.22;100.00;97889.59;5031149;28;20029;-72
2022/02/16 10:12:00;;;;;;;1.52;0.70;;;;;;;6.24;100.00;97895.59;5020307;28;20034;-80
2022/02/16 10:14:31;;;;;;;0.85;0.50;;;;;;;6.17;100.00;97889.34;5018022;28;20391;-71
2022/02/16 10:17:02;;;;;;;2.55;0.95;;;;;;;6.31;100.00;97893.78;5028489;28;20026;-76
2022/02/16 10:19:45;;;;;;;1.48;0.77;;;;;;;6.29;100.00;97879.72;5034902;28;20029;-78
2022/02/16 10:22:11;;;;;;;0.80;0.57;;;;;;;6.36;100.00;97872.50;5035955;28;20033;-75
2022/02/16 10:24:36;;;;;;;1.02;0.60;;;;;;;6.49;100.00;97890.53;5033980;28;20059;-76
2022/02/16 10:27:02;;;;;;;2.13;0.90;;;;;;;6.55;100.00;97886.25;5031689;28;20105;-77
2022/02/16 10:29:30;;;;;;;4.05;1.45;;;;;;;6.54;100.00;97888.09;5014715;28;20033;-74
2022/02/16 10:31:58;;;;;;;3.83;1.42;;;;;;;6.66;100.00;97879.47;5024443;28;20033;-73
2022/02/16 10:34:53;;;;;;;3.50;0.85;;;;;;;6.63;100.00;97864.56;5031217;28;20122;-76
2022/02/16 10:37:29;;;;;;;2.17;0.57;;;;;;;6.65;100.00;97854.41;5016938;28;20480;-68
2022/02/16 10:40:10;;;;;;;1.17;0.50;;;;;;;6.68;100.00;97829.00;5023007;28;20033;-72
2022/02/16 10:42:37;;;;;;;4.47;0.60;;;;;;;6.57;100.00;97811.59;5024336;28;20029;-76
2022/02/16 10:45:13;;;;;;;1.85;0.22;;;;;;;6.71;100.00;97815.19;5025795;28;20464;-77
2022/02/16 10:48:02;;;;;;;1.08;0.60;;;;;;;6.65;100.00;97819.47;5022450;28;20034;-73
2022/02/16 10:50:33;;;;;;;1.15;0.68;;;;;;;6.56;100.00;97809.97;5028010;28;20056;-77
2022/02/16 10:53:01;;;;;;;2.05;1.20;;;;;;;6.63;100.00;97816.19;5023022;28;20089;-75
2022/02/16 10:55:47;;;;;;;2.03;0.40;;;;;;;6.88;100.00;97823.69;5026238;28;20026;-75
2022/02/16 10:58:15;;;;;;;1.95;0.38;;;;;;;6.77;99.84;97811.66;5023047;28;20018;-81
2022/02/16 11:00:43;;;;;;;0.73;0.43;;;;;;;6.67;99.15;97778.97;5043923;28;20034;-74
2022/02/16 11:03:09;;;;;;;0.95;0.50;;;;;;;7.03;97.75;97822.47;5012874;28;20022;-70
2022/02/16 11:05:44;;;;;;;6.50;0.50;;;;;;;7.15;96.77;97824.53;5013625;28;20283;-70
2022/02/16 11:08:13;;;;;;;1.13;0.50;;;;;;;7.33;95.93;97823.94;5014083;28;20088;-70
2022/02/16 11:10:39;;;;;;;;;;;;;;;7.39;94.41;97820.44;5018602;28;20033;-70
2022/02/16 11:13:05;;;;;;;0.82;0.52;;;;;;;7.45;93.13;97815.03;5022589;28;19913;-70
2022/02/16 11:15:30;;;;;;;1.92;0.45;;;;;;;7.56;92.10;97828.91;5030673;28;20026;-69
2022/02/16 11:18:09;;;;;;;1.58;0.85;;;;;;;7.58;92.66;97808.81;5025228;28;20017;-70
2022/02/16 11:20:35;;;;;;;0.93;0.52;;;;;;;7.62;91.44;97810.06;5017741;28;20025;-70
2022/02/16 11:23:02;;;;;;;0.57;0.40;;;;;;;7.76;91.28;97810.06;5015496;28;20029;-70
2022/02/16 11:25:34;;;;;;;0.90;0.30;;;;;;;7.79;90.69;97797.00;5012285;28;20091;-70
2022/02/16 11:28:00;;;;;;;1.30;0.50;;;;;;;7.74;90.26;97767.16;5025511;28;20116;-70
2022/02/16 11:30:46;;;;;;;0.82;0.50;;;;;;;7.90;89.84;97790.13;5014968;28;20029;-70
2022/02/16 11:33:19;;;;;;;4.72;0.90;;;;;;;8.09;90.01;97794.63;5027796;28;20100;-73
2022/02/16 11:35:54;;;;;;;1.30;0.47;;;;;;;8.12;89.24;97782.59;5018481;28;20030;-74
2022/02/16 11:38:22;;;;;;;1.67;0.70;;;;;;;8.13;88.56;97774.31;5016300;28;20022;-76